Time;durP1;ratioP1;P1;durP2;ratioP2;P2;SDS_P1;SDS_P2;PMS_P1;PMS_P2;Temp;Humidity;BMP_temperature;BMP_pressure;BME280_temperature;BME280_humidity;BME280_pressure;Samples;Min_cycle;Max_cycle;Signal;HPM_P1;HPM_P2
2023/12/12 00:01:11;;;;;;;15.73;5.10;;;4.60;99.90;;;;;;5012576;28;20672;-69
2023/12/12 00:03:37;;;;;;;11.05;5.95;;;4.50;99.90;;;;;;5033095;28;20038;-70
2023/12/12 00:06:02;;;;;;;16.35;5.25;;;4.50;99.90;;;;;;5028352;28;20042;-69
2023/12/12 00:08:28;;;;;;;10.45;5.40;;;4.40;99.90;;;;;;5032731;28;20037;-69
2023/12/12 00:10:54;;;;;;;16.25;5.43;;;4.30;99.90;;;;;;5033221;28;20072;-69
2023/12/12 00:13:19;;;;;;;12.55;5.97;;;4.30;99.90;;;;;;5011863;28;20034;-69
2023/12/12 00:15:45;;;;;;;13.13;5.95;;;4.30;99.90;;;;;;5032338;28;20042;-70
2023/12/12 00:18:10;;;;;;;12.07;5.88;;;4.20;99.90;;;;;;5033082;28;20465;-69
2023/12/12 00:20:36;;;;;;;13.55;5.75;;;4.20;99.90;;;;;;5015312;28;20056;-69
2023/12/12 00:23:01;;;;;;;16.77;6.60;;;4.20;99.90;;;;;;5009266;28;20048;-70
2023/12/12 00:25:27;;;;;;;14.32;6.05;;;4.20;99.90;;;;;;5018852;28;20045;-69
2023/12/12 00:27:52;;;;;;;10.07;5.60;;;4.20;99.90;;;;;;5032826;28;20041;-70
2023/12/12 00:30:18;;;;;;;15.18;6.10;;;4.20;99.90;;;;;;5025347;28;20038;-68
2023/12/12 00:32:43;;;;;;;14.30;5.65;;;4.10;99.90;;;;;;5031764;28;20076;-70
2023/12/12 00:35:09;;;;;;;11.75;5.57;;;4.10;99.90;;;;;;5014938;28;20086;-69
2023/12/12 00:37:35;;;;;;;20.08;6.47;;;4.10;99.90;;;;;;5033135;28;20037;-70
2023/12/12 00:40:01;;;;;;;16.02;6.47;;;4.10;99.90;;;;;;5023714;28;20092;-70
2023/12/12 00:42:27;;;;;;;13.95;5.70;;;4.10;99.90;;;;;;5008806;28;20057;-70
2023/12/12 00:44:52;;;;;;;14.38;6.20;;;4.10;99.90;;;;;;5032659;28;20037;-68
2023/12/12 00:47:18;;;;;;;11.45;6.10;;;4.00;99.90;;;;;;5026955;28;20453;-70
2023/12/12 00:49:43;;;;;;;15.95;6.32;;;4.00;99.90;;;;;;5018229;28;20549;-69
2023/12/12 00:52:09;;;;;;;15.15;6.45;;;4.00;99.90;;;;;;5014472;28;20491;-70
2023/12/12 00:54:34;;;;;;;16.08;6.50;;;3.90;99.90;;;;;;5032536;28;20168;-68
2023/12/12 00:57:00;;;;;;;16.33;7.30;;;3.90;99.90;;;;;;5026510;28;20037;-69
2023/12/12 00:59:25;;;;;;;13.95;6.10;;;3.90;99.90;;;;;;5031152;28;20045;-69
2023/12/12 01:01:51;;;;;;;16.15;5.88;;;3.80;99.90;;;;;;5032183;28;20041;-67
2023/12/12 01:04:16;;;;;;;17.10;6.20;;;3.80;99.90;;;;;;5009184;28;20042;-66
2023/12/12 01:06:42;;;;;;;17.50;6.57;;;3.80;99.90;;;;;;5032177;28;20186;-67
2023/12/12 01:09:08;;;;;;;17.13;6.45;;;3.80;99.90;;;;;;5032359;28;20045;-67
2023/12/12 01:11:33;;;;;;;17.35;6.65;;;3.80;99.90;;;;;;5014505;28;20029;-67
2023/12/12 01:13:59;;;;;;;19.38;7.15;;;3.80;99.90;;;;;;5019150;28;20042;-67
2023/12/12 01:16:24;;;;;;;20.13;6.80;;;3.90;99.90;;;;;;5030400;28;20513;-68
2023/12/12 01:18:50;;;;;;;18.92;6.68;;;4.00;99.90;;;;;;5014011;28;20116;-67
2023/12/12 01:21:15;;;;;;;18.55;6.30;;;3.90;99.90;;;;;;5026334;28;20037;-68
2023/12/12 01:23:50;;;;;;;19.40;7.22;;;3.90;99.90;;;;;;5031446;28;20029;-67
2023/12/12 01:26:17;;;;;;;16.98;6.68;;;3.90;99.90;;;;;;5031964;28;20116;-67
2023/12/12 01:28:43;;;;;;;17.90;7.00;;;3.90;99.90;;;;;;5025653;28;20057;-67
2023/12/12 01:31:08;;;;;;;13.35;6.30;;;3.90;99.90;;;;;;5024975;28;20560;-69
2023/12/12 01:33:34;;;;;;;20.38;7.05;;;3.70;99.90;;;;;;5013395;28;20095;-67
2023/12/12 01:36:00;;;;;;;16.95;6.18;;;3.80;99.90;;;;;;5031938;28;20592;-67
2023/12/12 01:38:25;;;;;;;16.98;7.35;;;3.70;99.90;;;;;;5017313;28;20045;-67
2023/12/12 01:40:51;;;;;;;19.42;6.93;;;3.70;99.90;;;;;;5025718;28;20041;-67
2023/12/12 01:43:24;;;;;;;22.95;6.90;;;3.80;99.90;;;;;;5031426;28;20407;-67
2023/12/12 01:45:50;;;;;;;18.80;7.15;;;3.80;99.90;;;;;;5027631;28;20026;-66
2023/12/12 01:48:16;;;;;;;16.88;6.60;;;3.80;99.90;;;;;;5031314;28;20033;-67
2023/12/12 01:50:42;;;;;;;22.38;7.43;;;3.90;99.90;;;;;;5031669;28;20064;-66
2023/12/12 01:53:08;;;;;;;15.95;7.00;;;3.90;99.90;;;;;;5004416;28;20050;-66
2023/12/12 01:55:36;;;;;;;18.30;7.47;;;3.90;99.90;;;;;;5024937;28;20395;-66
2023/12/12 01:58:02;;;;;;;22.25;7.70;;;3.90;99.90;;;;;;5031073;28;20025;-66
2023/12/12 02:00:28;;;;;;;17.73;6.93;;;3.90;99.90;;;;;;5031303;28;20052;-67
2023/12/12 02:02:54;;;;;;;17.17;6.78;;;3.90;99.90;;;;;;5029054;28;20112;-66
2023/12/12 02:05:20;;;;;;;16.70;7.10;;;4.00;99.90;;;;;;5026953;28;20076;-67
2023/12/12 02:07:47;;;;;;;21.77;7.25;;;4.00;99.90;;;;;;5031254;28;20565;-67
2023/12/12 02:10:12;;;;;;;16.90;7.35;;;4.00;99.90;;;;;;5024174;28;20034;-67
2023/12/12 02:12:38;;;;;;;22.35;6.97;;;4.00;99.90;;;;;;5025440;28;20041;-67
2023/12/12 02:15:04;;;;;;;21.05;7.63;;;4.00;99.90;;;;;;5030486;28;20076;-67
2023/12/12 02:17:29;;;;;;;24.80;8.18;;;4.10;99.90;;;;;;5013606;28;20053;-67
2023/12/12 02:19:57;;;;;;;20.83;6.95;;;4.10;99.90;;;;;;5024986;28;20044;-68
2023/12/12 02:22:23;;;;;;;18.15;7.55;;;4.10;99.90;;;;;;5023146;28;20230;-67
2023/12/12 02:24:48;;;;;;;18.15;7.30;;;4.00;99.90;;;;;;5030776;28;20515;-67
2023/12/12 02:27:14;;;;;;;17.40;6.93;;;4.00;99.90;;;;;;5025547;28;20514;-67
2023/12/12 02:29:40;;;;;;;21.25;7.10;;;4.00;99.90;;;;;;5012686;28;20504;-67
2023/12/12 02:32:05;;;;;;;20.35;7.20;;;4.00;99.90;;;;;;5030486;28;20045;-69
2023/12/12 02:34:31;;;;;;;18.17;7.13;;;4.10;99.90;;;;;;5007351;28;20542;-67
2023/12/12 02:36:56;;;;;;;21.00;7.68;;;4.10;99.90;;;;;;5028472;28;20448;-67
2023/12/12 02:39:22;;;;;;;19.23;7.53;;;4.10;99.90;;;;;;5030432;28;20400;-67
2023/12/12 02:41:47;;;;;;;18.23;7.40;;;4.10;99.90;;;;;;5030802;28;20041;-68
2023/12/12 02:44:13;;;;;;;19.33;7.90;;;4.20;99.90;;;;;;5023442;28;20052;-70
2023/12/12 02:46:39;;;;;;;28.98;8.05;;;4.20;99.90;;;;;;5029929;28;20029;-70
2023/12/12 02:49:05;;;;;;;19.77;8.20;;;4.20;99.90;;;;;;5012984;28;20049;-70
2023/12/12 02:51:31;;;;;;;15.43;7.50;;;4.20;99.90;;;;;;5013164;28;20038;-69
2023/12/12 02:53:57;;;;;;;16.17;7.57;;;4.20;99.90;;;;;;5025499;28;20553;-68
2023/12/12 02:56:22;;;;;;;17.10;6.35;;;4.00;99.90;;;;;;5010673;28;20041;-69
2023/12/12 02:58:48;;;;;;;18.42;7.03;;;3.90;99.90;;;;;;5012726;28;20042;-68
2023/12/12 03:01:14;;;;;;;14.73;7.15;;;3.80;99.90;;;;;;5017768;28;20096;-69
2023/12/12 03:03:39;;;;;;;14.70;6.65;;;3.80;99.90;;;;;;5027183;28;20041;-69
2023/12/12 03:06:07;;;;;;;19.75;7.63;;;3.70;99.90;;;;;;5030318;28;20072;-69
2023/12/12 03:08:32;;;;;;;11.93;6.32;;;3.80;99.90;;;;;;5013158;28;20488;-68
2023/12/12 03:10:58;;;;;;;16.50;6.60;;;3.80;99.90;;;;;;5018883;28;20042;-69
2023/12/12 03:13:23;;;;;;;13.27;6.63;;;3.70;99.90;;;;;;5028037;28;20407;-69
2023/12/12 03:15:49;;;;;;;16.48;6.40;;;3.70;99.90;;;;;;5030342;28;20391;-69
2023/12/12 03:18:14;;;;;;;18.55;6.03;;;3.70;99.90;;;;;;5018240;28;20522;-67
2023/12/12 03:20:40;;;;;;;72.78;8.00;;;3.60;99.90;;;;;;5024610;28;20507;-67
2023/12/12 03:23:05;;;;;;;19.98;6.45;;;3.60;99.90;;;;;;5029720;28;20084;-68
2023/12/12 03:25:31;;;;;;;24.73;6.63;;;3.60;99.90;;;;;;5021548;28;20065;-67
2023/12/12 03:27:57;;;;;;;35.90;8.18;;;3.50;99.90;;;;;;5019495;28;20069;-69
2023/12/12 03:30:22;;;;;;;180.98;10.52;;;3.50;99.90;;;;;;5030059;28;20076;-70
2023/12/12 03:32:48;;;;;;;35.85;6.63;;;3.50;99.90;;;;;;5005944;28;20069;-70
2023/12/12 03:35:13;;;;;;;302.98;13.65;;;3.40;99.90;;;;;;5021979;28;20068;-67
2023/12/12 03:37:39;;;;;;;175.93;8.43;;;3.40;99.90;;;;;;5012443;28;20103;-67
2023/12/12 03:40:05;;;;;;;120.68;7.45;;;3.50;99.90;;;;;;5045877;28;20060;-69
2023/12/12 03:42:30;;;;;;;179.27;10.10;;;3.60;99.90;;;;;;5009461;28;20041;-67
2023/12/12 03:44:56;;;;;;;63.17;8.25;;;3.80;99.90;;;;;;5022661;28;20025;-67
2023/12/12 03:47:22;;;;;;;41.78;6.72;;;3.80;99.90;;;;;;5012281;28;20041;-67
2023/12/12 03:49:47;;;;;;;60.78;7.00;;;3.80;99.90;;;;;;5027834;28;20071;-68
2023/12/12 03:52:13;;;;;;;59.80;7.07;;;3.70;99.90;;;;;;5024203;28;20530;-67
2023/12/12 03:54:38;;;;;;;104.50;6.93;;;3.70;99.90;;;;;;5029682;28;20580;-67
2023/12/12 03:57:04;;;;;;;193.73;10.85;;;3.70;99.90;;;;;;5031952;28;20403;-67
2023/12/12 03:59:29;;;;;;;144.40;9.05;;;3.70;99.90;;;;;;5027473;28;20475;-69
2023/12/12 04:01:55;;;;;;;140.75;8.77;;;3.70;99.90;;;;;;5011112;28;20057;-66
2023/12/12 04:04:20;;;;;;;39.92;5.28;;;3.60;99.90;;;;;;5033117;28;20597;-66
2023/12/12 04:06:47;;;;;;;76.32;6.32;;;3.50;99.90;;;;;;5025022;28;20029;-67
2023/12/12 04:09:13;;;;;;;48.45;5.47;;;3.60;99.90;;;;;;5024622;28;20038;-68
2023/12/12 04:11:38;;;;;;;17.58;6.85;;;3.60;99.90;;;;;;5015246;28;20042;-69
2023/12/12 04:14:04;;;;;;;47.40;6.53;;;3.60;99.90;;;;;;5033232;28;20080;-70
2023/12/12 04:16:29;;;;;;;31.05;6.20;;;3.70;99.90;;;;;;5024536;28;20033;-70
2023/12/12 04:18:55;;;;;;;49.47;6.55;;;3.70;99.90;;;;;;5022624;28;20034;-70
2023/12/12 04:21:20;;;;;;;230.40;9.00;;;3.70;99.90;;;;;;5015758;28;20510;-69
2023/12/12 04:23:46;;;;;;;122.00;8.50;;;3.70;99.90;;;;;;5009040;28;20488;-70
2023/12/12 04:26:12;;;;;;;239.23;18.63;;;3.80;99.90;;;;;;5023898;28;20519;-69
2023/12/12 04:28:38;;;;;;;188.60;12.07;;;3.80;99.90;;;;;;5033292;28;20134;-69
2023/12/12 04:31:04;;;;;;;166.30;10.90;;;3.80;99.90;;;;;;5033105;28;20531;-70
2023/12/12 04:33:30;;;;;;;146.60;10.00;;;3.70;99.90;;;;;;5025753;28;20087;-69
2023/12/12 04:35:56;;;;;;;81.88;7.32;;;3.80;99.90;;;;;;5013665;28;20045;-70
2023/12/12 04:38:21;;;;;;;143.00;10.73;;;3.80;99.90;;;;;;5015139;28;20034;-69
2023/12/12 04:40:47;;;;;;;224.98;14.45;;;3.70;99.90;;;;;;5009500;28;20049;-68
2023/12/12 04:43:12;;;;;;;90.18;5.80;;;3.60;99.90;;;;;;5026763;28;20053;-69
2023/12/12 04:45:38;;;;;;;107.65;7.78;;;3.50;99.90;;;;;;5015171;28;20033;-69
2023/12/12 04:48:04;;;;;;;154.68;10.63;;;3.40;99.90;;;;;;5032949;28;20558;-70
2023/12/12 04:50:29;;;;;;;128.00;8.18;;;3.40;99.90;;;;;;5027194;28;20112;-69
2023/12/12 04:52:55;;;;;;;109.28;7.05;;;3.30;99.90;;;;;;5017838;28;20088;-70
2023/12/12 04:55:20;;;;;;;93.75;6.53;;;3.30;99.90;;;;;;5006041;28;20070;-67
2023/12/12 04:57:46;;;;;;;16.85;4.07;;;3.30;99.90;;;;;;5025003;28;20071;-67
2023/12/12 05:00:15;;;;;;;89.10;8.48;;;3.30;99.90;;;;;;5028736;28;20404;-67
2023/12/12 05:02:41;;;;;;;147.82;7.35;;;3.30;99.90;;;;;;5032137;28;20052;-67
2023/12/12 05:05:08;;;;;;;109.38;11.23;;;3.40;99.90;;;;;;5027690;28;20450;-67
2023/12/12 05:07:34;;;;;;;156.68;8.02;;;3.30;99.90;;;;;;5001021;28;20467;-67
2023/12/12 05:10:00;;;;;;;50.95;5.07;;;3.40;99.90;;;;;;5031422;28;20103;-68
2023/12/12 05:12:25;;;;;;;54.97;4.97;;;3.40;99.90;;;;;;5032387;28;20064;-70
2023/12/12 05:14:51;;;;;;;42.50;4.10;;;3.40;99.90;;;;;;5024735;28;20092;-70
2023/12/12 05:17:17;;;;;;;82.63;6.63;;;3.40;99.90;;;;;;5028486;28;20049;-68
2023/12/12 05:19:42;;;;;;;83.07;7.13;;;3.40;99.90;;;;;;5014516;28;20400;-66
2023/12/12 05:22:08;;;;;;;140.52;9.25;;;3.40;99.90;;;;;;5026015;28;20080;-69
2023/12/12 05:24:33;;;;;;;231.70;10.35;;;3.30;99.90;;;;;;5031150;28;20037;-67
2023/12/12 05:26:59;;;;;;;163.45;10.95;;;3.40;99.90;;;;;;5031883;28;20041;-66
2023/12/12 05:29:25;;;;;;;134.30;8.85;;;3.40;99.90;;;;;;5014813;28;20576;-67
2023/12/12 05:31:50;;;;;;;134.13;7.90;;;3.40;99.90;;;;;;5020086;28;20508;-69
2023/12/12 05:34:16;;;;;;;129.25;6.07;;;3.40;99.90;;;;;;5030817;28;20057;-67
2023/12/12 05:36:41;;;;;;;326.25;14.75;;;3.50;99.90;;;;;;5031974;28;20034;-67
2023/12/12 05:39:09;;;;;;;233.35;13.82;;;3.60;99.90;;;;;;5028978;28;20037;-67
2023/12/12 05:41:35;;;;;;;207.00;11.18;;;3.70;99.90;;;;;;5027686;28;20052;-67
2023/12/12 05:44:01;;;;;;;201.57;12.43;;;3.90;99.90;;;;;;5031271;28;20029;-70
2023/12/12 05:46:26;;;;;;;219.30;12.63;;;4.10;99.90;;;;;;5014193;28;20049;-68
2023/12/12 05:48:52;;;;;;;212.63;10.95;;;4.30;99.90;;;;;;5001497;28;20043;-70
2023/12/12 05:51:17;;;;;;;114.53;9.45;;;4.40;99.90;;;;;;5030470;28;20045;-70
2023/12/12 05:53:43;;;;;;;160.65;12.30;;;4.50;99.90;;;;;;5030895;28;20095;-69
2023/12/12 05:56:09;;;;;;;183.15;12.65;;;4.60;99.90;;;;;;5003195;28;20046;-69
2023/12/12 05:58:34;;;;;;;124.13;10.68;;;4.70;99.90;;;;;;5011061;28;20033;-69
2023/12/12 06:01:00;;;;;;;133.27;11.02;;;4.80;99.90;;;;;;4993279;28;20077;-69
2023/12/12 06:03:26;;;;;;;113.32;13.07;;;4.80;99.90;;;;;;5011861;28;20053;-69
2023/12/12 06:05:52;;;;;;;158.70;12.40;;;4.90;99.90;;;;;;5009125;28;20458;-70
2023/12/12 06:08:17;;;;;;;123.78;11.18;;;4.90;99.90;;;;;;5030503;28;20115;-69
2023/12/12 06:10:43;;;;;;;138.73;12.48;;;4.90;99.90;;;;;;5031558;28;20060;-70
2023/12/12 06:13:08;;;;;;;65.70;11.05;;;4.90;99.90;;;;;;5024147;28;20041;-68
2023/12/12 06:15:34;;;;;;;38.95;10.32;;;5.00;99.90;;;;;;4996715;28;20045;-69
2023/12/12 06:18:00;;;;;;;33.55;10.30;;;5.10;99.90;;;;;;5023864;28;20029;-68
2023/12/12 06:20:26;;;;;;;43.88;11.40;;;5.10;99.90;;;;;;5020679;28;20041;-70
2023/12/12 06:22:51;;;;;;;79.00;12.23;;;5.10;99.90;;;;;;5010683;28;20482;-69
2023/12/12 06:25:17;;;;;;;30.92;11.77;;;5.20;99.90;;;;;;5012351;28;20132;-69
2023/12/12 06:27:43;;;;;;;36.97;12.20;;;5.20;99.90;;;;;;5023010;28;20128;-70
2023/12/12 06:30:09;;;;;;;59.38;13.02;;;5.20;99.90;;;;;;5028402;28;20038;-67
2023/12/12 06:32:34;;;;;;;55.45;14.05;;;5.30;99.90;;;;;;5006555;28;20045;-69
2023/12/12 06:35:00;;;;;;;48.25;13.75;;;5.40;99.90;;;;;;5026913;28;20086;-69
2023/12/12 06:37:25;;;;;;;44.15;14.35;;;5.40;99.90;;;;;;5026604;28;20038;-67
2023/12/12 06:39:52;;;;;;;42.47;14.32;;;5.50;99.90;;;;;;5022759;28;20500;-70
2023/12/12 06:42:17;;;;;;;72.70;14.45;;;5.50;99.90;;;;;;5027494;28;20047;-68
2023/12/12 06:44:43;;;;;;;39.38;13.30;;;5.40;99.90;;;;;;5027608;28;20037;-68
2023/12/12 06:47:09;;;;;;;123.65;15.60;;;5.40;99.90;;;;;;5001223;28;20412;-72
2023/12/12 06:49:34;;;;;;;59.85;14.65;;;5.40;99.90;;;;;;5009714;28;20053;-71
2023/12/12 06:52:01;;;;;;;79.70;16.67;;;5.30;99.90;;;;;;5026902;28;20480;-68
2023/12/12 06:54:27;;;;;;;133.57;17.70;;;5.30;99.90;;;;;;5022262;28;20057;-68
2023/12/12 06:56:52;;;;;;;435.48;23.90;;;5.30;99.90;;;;;;5020050;28;20029;-71
2023/12/12 06:59:18;;;;;;;450.73;25.98;;;5.30;99.90;;;;;;5027948;28;20037;-68
2023/12/12 07:01:43;;;;;;;406.45;22.67;;;5.30;99.90;;;;;;5021571;28;20511;-67
2023/12/12 07:04:09;;;;;;;298.23;19.60;;;5.20;99.90;;;;;;5027035;28;20222;-68
2023/12/12 07:06:35;;;;;;;558.40;31.05;;;5.10;99.90;;;;;;5030269;28;20491;-69
2023/12/12 07:09:00;;;;;;;291.17;20.55;;;5.10;99.90;;;;;;5025866;28;20042;-67
2023/12/12 07:11:26;;;;;;;317.00;21.50;;;5.10;99.90;;;;;;5001669;28;20040;-67
2023/12/12 07:13:51;;;;;;;176.45;19.85;;;5.00;99.90;;;;;;5000475;28;20032;-67
2023/12/12 07:16:18;;;;;;;297.10;20.88;;;5.00;99.90;;;;;;5012310;28;20064;-68
2023/12/12 07:18:43;;;;;;;451.83;26.55;;;4.90;99.90;;;;;;5023900;28;20037;-67
2023/12/12 07:21:09;;;;;;;370.58;23.58;;;4.80;99.90;;;;;;5024969;28;20442;-66
2023/12/12 07:23:34;;;;;;;316.58;20.95;;;4.80;99.90;;;;;;5030232;28;20552;-67
2023/12/12 07:26:00;;;;;;;296.90;20.83;;;4.70;99.90;;;;;;5030153;28;20608;-66
2023/12/12 07:28:27;;;;;;;232.48;19.45;;;4.70;99.90;;;;;;5020036;28;20030;-66
2023/12/12 07:30:55;;;;;;;128.40;16.92;;;4.60;99.90;;;;;;5006955;28;20148;-66
2023/12/12 07:33:21;;;;;;;97.38;16.75;;;4.50;99.90;;;;;;5015516;28;20041;-66
2023/12/12 07:35:46;;;;;;;85.70;17.65;;;4.50;99.90;;;;;;5033938;28;20040;-69
2023/12/12 07:38:12;;;;;;;52.47;17.48;;;4.40;99.90;;;;;;5028651;28;20115;-68
2023/12/12 07:40:38;;;;;;;44.03;17.88;;;4.40;99.90;;;;;;5033709;28;20060;-65
2023/12/12 07:43:03;;;;;;;55.95;18.50;;;4.30;99.90;;;;;;5020762;28;20487;-63
2023/12/12 07:45:29;;;;;;;58.45;19.00;;;4.40;99.90;;;;;;5021656;28;20535;-64
2023/12/12 07:47:54;;;;;;;69.25;19.55;;;4.30;99.90;;;;;;5032293;28;20049;-64
2023/12/12 07:50:20;;;;;;;274.10;24.38;;;4.40;99.90;;;;;;5032623;28;20037;-69
2023/12/12 07:55:21;;;;;;;63.42;19.33;;;4.40;99.90;;;;;;5428375;22;20115;-69
2023/12/12 07:58:34;;;;;;;602.25;31.90;;;4.30;99.90;;;;;;5056437;28;20498;-68
2023/12/12 08:00:59;;;;;;;297.35;21.63;;;4.20;99.90;;;;;;5030534;28;20505;-69
2023/12/12 08:03:25;;;;;;;463.17;25.88;;;4.10;99.90;;;;;;5043509;28;20041;-69
2023/12/12 08:05:51;;;;;;;522.08;27.52;;;4.10;99.90;;;;;;5039735;28;20028;-70
2023/12/12 08:08:16;;;;;;;551.10;29.70;;;4.00;99.90;;;;;;5035176;28;20041;-68
2023/12/12 08:10:42;;;;;;;416.88;26.25;;;4.10;99.90;;;;;;5046548;28;20037;-68
2023/12/12 08:13:10;;;;;;;435.27;27.83;;;4.10;99.90;;;;;;5047718;28;20116;-68
2023/12/12 08:15:37;;;;;;;564.45;31.38;;;4.20;99.90;;;;;;4999164;28;20421;-69
2023/12/12 08:20:35;;;;;;;116.40;21.83;;;4.30;99.90;;;;;;5034547;28;20045;-67
2023/12/12 08:23:01;;;;;;;316.85;24.88;;;4.40;99.90;;;;;;5032775;28;20403;-70
2023/12/12 08:25:26;;;;;;;366.10;29.30;;;4.40;99.90;;;;;;5015004;28;20045;-70
2023/12/12 08:27:52;;;;;;;200.27;24.55;;;4.40;99.90;;;;;;5030056;28;20033;-69
2023/12/12 08:30:18;;;;;;;147.10;24.13;;;4.50;99.90;;;;;;4999821;28;20104;-69
2023/12/12 08:32:43;;;;;;;91.78;20.70;;;4.50;99.90;;;;;;5039305;22;20455;-68
2023/12/12 08:35:09;;;;;;;95.72;21.92;;;4.50;99.90;;;;;;5029091;28;20038;-68
2023/12/12 08:37:35;;;;;;;115.07;24.65;;;4.50;99.90;;;;;;5027531;28;20037;-66
2023/12/12 08:40:01;;;;;;;127.43;24.95;;;4.60;99.90;;;;;;5031514;28;20033;-66
2023/12/12 08:42:26;;;;;;;200.52;28.55;;;4.80;99.90;;;;;;5015683;28;20050;-66
2023/12/12 08:44:52;;;;;;;254.75;29.27;;;4.90;99.90;;;;;;5011410;28;20042;-67
2023/12/12 08:47:18;;;;;;;218.35;31.23;;;5.00;99.90;;;;;;5026032;28;20049;-66
2023/12/12 08:49:44;;;;;;;264.25;29.45;;;5.10;99.90;;;;;;5032703;28;20376;-67
2023/12/12 08:52:10;;;;;;;268.52;30.50;;;5.20;99.90;;;;;;5026781;28;20037;-65
2023/12/12 08:54:36;;;;;;;210.38;30.25;;;5.30;99.90;;;;;;5031565;28;20041;-69
2023/12/12 08:57:02;;;;;;;354.83;32.15;;;5.40;99.90;;;;;;5032105;28;20047;-68
2023/12/12 08:59:28;;;;;;;254.00;28.67;;;5.50;99.90;;;;;;5032729;28;20045;-68
2023/12/12 09:01:54;;;;;;;192.07;26.98;;;5.50;99.90;;;;;;5026723;28;20038;-68
2023/12/12 09:04:20;;;;;;;216.15;29.42;;;5.50;99.90;;;;;;5021600;28;20042;-66
2023/12/12 09:06:46;;;;;;;407.50;33.00;;;5.60;99.90;;;;;;5032004;28;20120;-66
2023/12/12 09:09:12;;;;;;;203.95;29.58;;;5.70;99.90;;;;;;5022316;28;20085;-66
2023/12/12 09:11:39;;;;;;;305.77;29.67;;;5.70;99.90;;;;;;5024452;28;20067;-66
2023/12/12 09:14:05;;;;;;;391.35;36.25;;;5.70;99.90;;;;;;5031866;28;20041;-67
2023/12/12 09:16:31;;;;;;;372.45;33.95;;;5.80;99.90;;;;;;5032288;28;20038;-66
2023/12/12 09:18:57;;;;;;;285.70;31.90;;;5.80;99.90;;;;;;5028891;28;20034;-67
2023/12/12 09:21:22;;;;;;;340.33;34.70;;;5.80;99.90;;;;;;5030115;28;20389;-66
2023/12/12 09:23:48;;;;;;;416.65;34.35;;;5.80;99.90;;;;;;5031537;28;20037;-67
2023/12/12 09:26:14;;;;;;;406.15;32.80;;;5.90;99.90;;;;;;5021145;28;20389;-68
2023/12/12 09:28:41;;;;;;;356.35;32.17;;;5.90;99.90;;;;;;5031219;28;20377;-68
2023/12/12 09:31:07;;;;;;;403.70;36.45;;;5.90;99.90;;;;;;5031959;28;20130;-67
2023/12/12 09:33:37;;;;;;;369.08;32.65;;;5.90;99.90;;;;;;5026652;28;20050;-69
2023/12/12 09:36:03;;;;;;;382.35;33.65;;;6.00;99.90;;;;;;5027153;28;20112;-68
2023/12/12 09:38:29;;;;;;;316.75;32.40;;;6.00;99.90;;;;;;5029218;28;20045;-68
2023/12/12 09:40:56;;;;;;;339.20;33.45;;;6.00;99.90;;;;;;5021360;28;20037;-68
2023/12/12 09:43:26;;;;;;;383.88;35.00;;;6.00;99.90;;;;;;5022891;28;20044;-68
2023/12/12 09:45:56;;;;;;;254.32;30.85;;;6.10;99.90;;;;;;5015046;28;20036;-68
2023/12/12 09:48:21;;;;;;;331.55;33.20;;;6.10;99.90;;;;;;5028292;28;20037;-68
2023/12/12 09:50:47;;;;;;;409.02;35.88;;;6.20;99.90;;;;;;5030131;28;20510;-69
2023/12/12 09:53:13;;;;;;;258.17;29.35;;;6.20;99.90;;;;;;5028524;28;20037;-68
2023/12/12 09:55:40;;;;;;;412.50;35.58;;;6.20;99.90;;;;;;5020032;28;20090;-68
2023/12/12 09:58:07;;;;;;;329.77;33.65;;;6.20;99.90;;;;;;5020223;28;20038;-68
2023/12/12 10:00:32;;;;;;;263.98;28.90;;;6.20;99.90;;;;;;5015319;28;20140;-70
2023/12/12 10:02:59;;;;;;;155.00;26.63;;;6.20;99.90;;;;;;5019712;28;20121;-66
2023/12/12 10:05:32;;;;;;;206.68;24.85;;;6.30;99.90;;;;;;5030138;28;20175;-66
2023/12/12 10:08:01;;;;;;;300.50;27.73;;;6.30;99.90;;;;;;5029612;28;20056;-66
2023/12/12 10:10:26;;;;;;;300.02;29.27;;;6.30;99.90;;;;;;5031553;28;20037;-66
2023/12/12 10:12:52;;;;;;;226.75;27.55;;;6.40;99.90;;;;;;5023560;28;20060;-67
2023/12/12 10:15:22;;;;;;;203.68;26.33;;;6.40;99.90;;;;;;5025358;28;20510;-67
2023/12/12 10:17:48;;;;;;;246.77;27.67;;;6.50;99.90;;;;;;5019431;28;20140;-66
2023/12/12 10:20:22;;;;;;;221.73;27.35;;;6.50;99.90;;;;;;5030299;28;20069;-67
2023/12/12 10:22:47;;;;;;;233.30;28.38;;;6.50;99.90;;;;;;5029543;28;20136;-66
2023/12/12 10:25:14;;;;;;;200.32;26.58;;;6.60;99.90;;;;;;5025447;28;20046;-66
2023/12/12 10:27:43;;;;;;;209.27;29.88;;;6.60;99.90;;;;;;5029453;28;20088;-66
2023/12/12 10:30:11;;;;;;;151.73;25.02;;;6.60;99.90;;;;;;5014146;28;20044;-68
2023/12/12 10:32:37;;;;;;;223.73;27.23;;;6.60;99.90;;;;;;5014201;28;20033;-66
2023/12/12 10:35:05;;;;;;;193.07;27.25;;;6.60;99.90;;;;;;5025342;28;20491;-67
2023/12/12 10:37:30;;;;;;;153.13;27.50;;;6.70;99.90;;;;;;5030615;28;20399;-66
2023/12/12 10:40:10;;;;;;;216.70;26.90;;;6.70;99.90;;;;;;5031078;28;20549;-66
2023/12/12 10:42:37;;;;;;;168.00;26.98;;;6.70;99.90;;;;;;5020575;28;20056;-67
2023/12/12 10:45:05;;;;;;;184.52;27.95;;;6.80;99.90;;;;;;5026481;28;20045;-68
2023/12/12 10:47:32;;;;;;;137.02;26.73;;;6.80;99.90;;;;;;5030131;28;20091;-68
2023/12/12 10:50:02;;;;;;;116.18;25.48;;;6.80;99.90;;;;;;5018954;28;20081;-68
2023/12/12 10:52:29;;;;;;;130.70;26.58;;;6.80;99.90;;;;;;5021339;28;20046;-68
2023/12/12 10:54:57;;;;;;;111.55;24.80;;;6.90;99.90;;;;;;5029744;28;20041;-67
2023/12/12 10:57:24;;;;;;;89.43;24.55;;;7.00;99.90;;;;;;5030515;28;20034;-69
2023/12/12 10:59:52;;;;;;;100.10;26.17;;;7.10;99.90;;;;;;5030270;28;20040;-67
2023/12/12 11:02:19;;;;;;;94.75;25.40;;;7.10;99.90;;;;;;5021836;28;20052;-68
2023/12/12 11:04:46;;;;;;;100.07;25.83;;;7.20;99.90;;;;;;5028339;28;20558;-67
2023/12/12 11:07:12;;;;;;;102.05;25.15;;;7.30;99.90;;;;;;5019343;28;20048;-67
2023/12/12 11:09:37;;;;;;;111.75;26.38;;;7.40;99.90;;;;;;5029871;28;20029;-67
2023/12/12 11:12:05;;;;;;;97.13;25.85;;;7.50;99.90;;;;;;5028718;28;20092;-67
2023/12/12 11:14:32;;;;;;;124.60;25.40;;;7.60;99.90;;;;;;5022918;28;20073;-68
2023/12/12 11:17:01;;;;;;;102.15;24.33;;;7.60;99.90;;;;;;5029791;28;20056;-67
2023/12/12 11:19:27;;;;;;;100.65;23.92;;;7.60;99.90;;;;;;5013400;28;20485;-70
2023/12/12 11:21:52;;;;;;;101.68;23.88;;;7.70;99.90;;;;;;5021406;28;20055;-69
2023/12/12 11:24:20;;;;;;;90.03;23.65;;;7.70;99.90;;;;;;5020467;28;20121;-67
2023/12/12 11:26:52;;;;;;;87.45;23.58;;;7.70;99.90;;;;;;5028667;28;20037;-67
2023/12/12 11:29:23;;;;;;;91.70;23.55;;;7.70;99.90;;;;;;5028857;28;20037;-67
2023/12/12 11:32:03;;;;;;;74.95;22.13;;;7.70;99.90;;;;;;5015149;28;20050;-67
2023/12/12 11:34:36;;;;;;;95.85;23.25;;;7.70;99.90;;;;;;5010536;28;20110;-70
2023/12/12 11:37:02;;;;;;;79.63;21.23;;;7.70;99.90;;;;;;5021126;28;20037;-66
2023/12/12 11:39:51;;;;;;;76.72;22.00;;;7.80;99.90;;;;;;5021298;28;20040;-67
2023/12/12 11:42:21;;;;;;;83.57;21.48;;;7.70;99.90;;;;;;5018151;28;20496;-70
2023/12/12 11:44:49;;;;;;;80.80;23.13;;;7.70;99.90;;;;;;5026531;28;20095;-67
2023/12/12 11:47:18;;;;;;;81.63;23.17;;;7.70;99.90;;;;;;5030263;28;20116;-68
2023/12/12 11:49:44;;;;;;;100.82;24.75;;;7.60;99.90;;;;;;5030068;28;20045;-68
2023/12/12 11:52:09;;;;;;;98.82;25.25;;;7.60;99.90;;;;;;5023513;28;20049;-68
2023/12/12 11:54:35;;;;;;;95.82;24.42;;;7.60;99.90;;;;;;5022444;28;20131;-68
2023/12/12 11:57:02;;;;;;;91.53;23.85;;;7.60;99.90;;;;;;5010933;28;20046;-68
2023/12/12 11:59:29;;;;;;;77.55;24.50;;;7.60;99.90;;;;;;5021698;28;20044;-68
2023/12/12 12:01:55;;;;;;;77.95;23.48;;;7.60;99.90;;;;;;5029902;28;20060;-68
2023/12/12 12:04:22;;;;;;;82.15;23.20;;;7.60;99.90;;;;;;5029856;28;20048;-68
2023/12/12 12:06:52;;;;;;;77.70;23.63;;;7.60;99.90;;;;;;5021330;28;20037;-68
2023/12/12 12:09:19;;;;;;;95.55;24.98;;;7.60;99.90;;;;;;5015673;28;20179;-68
2023/12/12 12:11:47;;;;;;;87.35;24.75;;;7.50;99.90;;;;;;5029567;28;20045;-69
2023/12/12 12:14:14;;;;;;;76.60;21.90;;;7.60;99.90;;;;;;5016780;28;20127;-69
2023/12/12 12:16:40;;;;;;;75.00;22.42;;;7.60;99.90;;;;;;5029744;28;20411;-68
2023/12/12 12:19:29;;;;;;;87.25;24.13;;;7.60;99.90;;;;;;5033053;28;20453;-68
2023/12/12 12:21:55;;;;;;;85.03;24.25;;;7.60;99.90;;;;;;5025031;28;20037;-69
2023/12/12 12:24:22;;;;;;;94.38;23.00;;;7.70;99.90;;;;;;5031439;28;20526;-68
2023/12/12 12:26:47;;;;;;;104.95;24.55;;;7.60;99.90;;;;;;5033470;28;20059;-69
2023/12/12 12:29:13;;;;;;;102.72;26.13;;;7.70;99.90;;;;;;5024717;28;20050;-69
2023/12/12 12:31:38;;;;;;;85.43;24.50;;;7.70;99.90;;;;;;5022922;28;20444;-68
2023/12/12 12:34:24;;;;;;;92.78;26.10;;;7.70;99.90;;;;;;5032850;28;20033;-67
2023/12/12 12:36:51;;;;;;;108.22;26.40;;;7.80;99.90;;;;;;5032850;28;20049;-66